sensor_id;sensor_type;location;lat;lon;timestamp;pressure;altitude;pressure_sealevel;temperature;humidity
15568;BME280;7885;42.596;23.044;2022-10-16T00:01:17;93570.34;;;7.87;88.36
15568;BME280;7885;42.596;23.044;2022-10-16T00:03:45;93573.31;;;7.78;88.37
15568;BME280;7885;42.596;23.044;2022-10-16T00:06:13;93522.53;;;7.52;91.79
15568;BME280;7885;42.596;23.044;2022-10-16T00:08:40;93575.16;;;7.97;91.75
15568;BME280;7885;42.596;23.044;2022-10-16T00:11:09;93572.00;;;7.91;90.19
15568;BME280;7885;42.596;23.044;2022-10-16T00:13:37;93554.44;;;7.62;88.86
15568;BME280;7885;42.596;23.044;2022-10-16T00:16:04;93588.06;;;7.81;89.08
15568;BME280;7885;42.596;23.044;2022-10-16T00:18:34;93529.75;;;7.45;90.12
15568;BME280;7885;42.596;23.044;2022-10-16T00:21:02;93584.22;;;7.82;86.63
15568;BME280;7885;42.596;23.044;2022-10-16T00:23:30;93586.22;;;7.66;86.00
15568;BME280;7885;42.596;23.044;2022-10-16T00:25:57;93577.63;;;7.60;86.14
15568;BME280;7885;42.596;23.044;2022-10-16T00:28:24;93581.41;;;7.55;86.32
15568;BME280;7885;42.596;23.044;2022-10-16T00:30:52;93457.56;;;6.69;89.04
15568;BME280;7885;42.596;23.044;2022-10-16T00:33:19;93595.03;;;7.40;91.17
15568;BME280;7885;42.596;23.044;2022-10-16T00:35:48;93584.94;;;7.37;92.20
15568;BME280;7885;42.596;23.044;2022-10-16T00:38:15;93573.03;;;7.22;91.18
15568;BME280;7885;42.596;23.044;2022-10-16T00:40:42;93590.41;;;7.40;90.59
15568;BME280;7885;42.596;23.044;2022-10-16T00:43:13;93594.25;;;7.39;87.58
15568;BME280;7885;42.596;23.044;2022-10-16T00:45:41;93557.94;;;7.02;87.22
15568;BME280;7885;42.596;23.044;2022-10-16T00:48:11;93590.84;;;7.23;90.33
15568;BME280;7885;42.596;23.044;2022-10-16T00:50:40;93593.25;;;7.28;92.14
15568;BME280;7885;42.596;23.044;2022-10-16T00:53:10;93493.56;;;6.53;93.69
15568;BME280;7885;42.596;23.044;2022-10-16T00:55:38;93588.97;;;7.08;95.82
15568;BME280;7885;42.596;23.044;2022-10-16T00:58:05;93507.19;;;6.41;97.93
15568;BME280;7885;42.596;23.044;2022-10-16T01:00:32;93570.59;;;6.79;99.37
15568;BME280;7885;42.596;23.044;2022-10-16T01:03:00;93586.28;;;6.89;99.31
15568;BME280;7885;42.596;23.044;2022-10-16T01:05:34;93559.72;;;6.75;97.36
15568;BME280;7885;42.596;23.044;2022-10-16T01:08:12;93587.13;;;6.93;94.18
15568;BME280;7885;42.596;23.044;2022-10-16T01:10:44;93592.97;;;6.95;94.18
15568;BME280;7885;42.596;23.044;2022-10-16T01:13:18;93600.72;;;6.96;92.14
15568;BME280;7885;42.596;23.044;2022-10-16T01:15:53;93598.72;;;6.93;91.24
15568;BME280;7885;42.596;23.044;2022-10-16T01:18:28;93592.25;;;6.98;92.91
15568;BME280;7885;42.596;23.044;2022-10-16T01:21:01;93585.97;;;6.94;93.68
15568;BME280;7885;42.596;23.044;2022-10-16T01:23:38;93583.06;;;6.83;93.87
15568;BME280;7885;42.596;23.044;2022-10-16T01:26:27;93569.59;;;6.87;94.52
15568;BME280;7885;42.596;23.044;2022-10-16T01:29:00;93519.41;;;6.51;92.75
15568;BME280;7885;42.596;23.044;2022-10-16T01:31:33;93582.41;;;6.90;91.93
15568;BME280;7885;42.596;23.044;2022-10-16T01:34:05;93573.81;;;6.84;90.11
15568;BME280;7885;42.596;23.044;2022-10-16T01:36:36;93570.31;;;6.84;90.58
15568;BME280;7885;42.596;23.044;2022-10-16T01:39:04;93584.28;;;6.86;90.84
15568;BME280;7885;42.596;23.044;2022-10-16T01:41:34;93588.19;;;6.88;91.47
15568;BME280;7885;42.596;23.044;2022-10-16T01:44:06;93584.56;;;6.81;88.53
15568;BME280;7885;42.596;23.044;2022-10-16T01:46:36;93589.19;;;6.80;90.86
15568;BME280;7885;42.596;23.044;2022-10-16T01:49:05;93595.66;;;6.76;90.32
15568;BME280;7885;42.596;23.044;2022-10-16T01:51:34;93601.84;;;6.76;90.29
15568;BME280;7885;42.596;23.044;2022-10-16T01:54:02;93613.72;;;6.72;89.83
15568;BME280;7885;42.596;23.044;2022-10-16T01:56:31;93613.13;;;6.63;91.97
15568;BME280;7885;42.596;23.044;2022-10-16T01:59:01;93607.63;;;6.59;93.16
15568;BME280;7885;42.596;23.044;2022-10-16T02:01:31;93609.56;;;6.58;92.60
15568;BME280;7885;42.596;23.044;2022-10-16T02:04:03;93609.50;;;6.55;94.52
15568;BME280;7885;42.596;23.044;2022-10-16T02:06:32;93613.13;;;6.63;95.10
15568;BME280;7885;42.596;23.044;2022-10-16T02:09:00;93617.41;;;6.64;94.97
15568;BME280;7885;42.596;23.044;2022-10-16T02:11:26;93624.81;;;6.67;94.75
15568;BME280;7885;42.596;23.044;2022-10-16T02:13:56;93627.69;;;6.74;93.16
15568;BME280;7885;42.596;23.044;2022-10-16T02:16:34;93615.25;;;6.53;90.21
15568;BME280;7885;42.596;23.044;2022-10-16T02:19:02;93630.25;;;6.51;89.46
15568;BME280;7885;42.596;23.044;2022-10-16T02:21:32;93633.66;;;6.48;91.83
15568;BME280;7885;42.596;23.044;2022-10-16T02:24:08;93630.97;;;6.48;92.18
15568;BME280;7885;42.596;23.044;2022-10-16T02:30:03;93638.53;;;6.42;91.51
15568;BME280;7885;42.596;23.044;2022-10-16T02:32:37;93632.25;;;6.38;91.45
15568;BME280;7885;42.596;23.044;2022-10-16T02:35:06;93600.00;;;6.14;88.39
15568;BME280;7885;42.596;23.044;2022-10-16T02:37:34;93633.31;;;6.18;88.74
15568;BME280;7885;42.596;23.044;2022-10-16T02:40:01;93637.94;;;6.18;91.16
15568;BME280;7885;42.596;23.044;2022-10-16T02:42:31;93630.91;;;6.13;91.87
15568;BME280;7885;42.596;23.044;2022-10-16T02:44:59;93636.66;;;6.27;92.21
15568;BME280;7885;42.596;23.044;2022-10-16T02:47:26;93641.25;;;6.27;91.60
15568;BME280;7885;42.596;23.044;2022-10-16T02:49:54;93616.59;;;6.13;89.53
15568;BME280;7885;42.596;23.044;2022-10-16T02:52:21;93650.59;;;6.29;89.71
15568;BME280;7885;42.596;23.044;2022-10-16T02:54:47;93586.75;;;5.78;88.18
15568;BME280;7885;42.596;23.044;2022-10-16T02:57:14;93641.72;;;6.13;88.85
15568;BME280;7885;42.596;23.044;2022-10-16T02:59:41;93643.72;;;6.16;90.28
15568;BME280;7885;42.596;23.044;2022-10-16T03:02:08;93600.19;;;5.90;91.37
15568;BME280;7885;42.596;23.044;2022-10-16T03:04:35;93622.84;;;6.01;91.88
15568;BME280;7885;42.596;23.044;2022-10-16T03:07:03;93582.56;;;5.65;92.55
15568;BME280;7885;42.596;23.044;2022-10-16T03:09:30;93624.06;;;5.88;92.26
15568;BME280;7885;42.596;23.044;2022-10-16T03:11:57;93636.56;;;5.92;91.74
15568;BME280;7885;42.596;23.044;2022-10-16T03:14:24;93631.16;;;5.92;94.66
15568;BME280;7885;42.596;23.044;2022-10-16T03:16:50;93612.19;;;5.77;95.63
15568;BME280;7885;42.596;23.044;2022-10-16T03:19:17;93637.16;;;5.86;94.53
15568;BME280;7885;42.596;23.044;2022-10-16T03:21:45;93630.84;;;5.82;94.90
15568;BME280;7885;42.596;23.044;2022-10-16T03:24:13;93643.03;;;5.76;95.14
15568;BME280;7885;42.596;23.044;2022-10-16T03:26:39;93638.06;;;5.78;94.74
15568;BME280;7885;42.596;23.044;2022-10-16T03:29:06;93644.41;;;5.70;91.76
15568;BME280;7885;42.596;23.044;2022-10-16T03:31:33;93646.75;;;5.71;93.88
15568;BME280;7885;42.596;23.044;2022-10-16T03:34:00;93641.47;;;5.75;96.64
15568;BME280;7885;42.596;23.044;2022-10-16T03:36:26;93641.00;;;5.73;96.09
15568;BME280;7885;42.596;23.044;2022-10-16T03:38:53;93651.56;;;5.78;94.25
15568;BME280;7885;42.596;23.044;2022-10-16T03:41:21;93612.31;;;5.52;90.54
15568;BME280;7885;42.596;23.044;2022-10-16T03:43:48;93625.66;;;5.61;91.35
15568;BME280;7885;42.596;23.044;2022-10-16T03:46:15;93639.09;;;5.73;93.82
15568;BME280;7885;42.596;23.044;2022-10-16T03:48:41;93643.69;;;5.73;97.02
15568;BME280;7885;42.596;23.044;2022-10-16T03:51:08;93643.88;;;5.80;98.39
15568;BME280;7885;42.596;23.044;2022-10-16T03:53:35;93590.91;;;5.59;98.59
15568;BME280;7885;42.596;23.044;2022-10-16T03:56:02;93648.81;;;5.90;95.75
15568;BME280;7885;42.596;23.044;2022-10-16T03:58:30;93596.31;;;5.59;93.28
15568;BME280;7885;42.596;23.044;2022-10-16T04:00:57;93646.47;;;5.88;92.86
15568;BME280;7885;42.596;23.044;2022-10-16T04:03:24;93605.88;;;5.57;91.23
15568;BME280;7885;42.596;23.044;2022-10-16T04:05:50;93641.88;;;5.89;92.16
15568;BME280;7885;42.596;23.044;2022-10-16T04:08:17;93647.06;;;5.82;91.60
15568;BME280;7885;42.596;23.044;2022-10-16T04:10:44;93642.44;;;5.82;90.85
15568;BME280;7885;42.596;23.044;2022-10-16T04:13:11;93648.34;;;5.72;92.03
15568;BME280;7885;42.596;23.044;2022-10-16T04:15:40;93554.06;;;5.08;91.40
15568;BME280;7885;42.596;23.044;2022-10-16T04:18:07;93642.06;;;5.68;91.02
15568;BME280;7885;42.596;23.044;2022-10-16T04:20:34;93634.78;;;5.56;91.46
15568;BME280;7885;42.596;23.044;2022-10-16T04:23:00;93642.66;;;5.62;91.81
15568;BME280;7885;42.596;23.044;2022-10-16T04:25:27;93644.91;;;5.59;92.13
15568;BME280;7885;42.596;23.044;2022-10-16T04:27:54;93641.78;;;5.57;90.89
15568;BME280;7885;42.596;23.044;2022-10-16T04:30:22;93648.56;;;5.51;89.45
15568;BME280;7885;42.596;23.044;2022-10-16T04:32:50;93641.19;;;5.36;89.05
15568;BME280;7885;42.596;23.044;2022-10-16T04:35:18;93647.38;;;5.37;90.12
15568;BME280;7885;42.596;23.044;2022-10-16T04:37:45;93639.41;;;5.28;92.41
15568;BME280;7885;42.596;23.044;2022-10-16T04:40:12;93656.41;;;5.29;94.53
15568;BME280;7885;42.596;23.044;2022-10-16T04:42:39;93651.38;;;5.15;95.59
15568;BME280;7885;42.596;23.044;2022-10-16T04:45:07;93656.56;;;5.08;96.77
15568;BME280;7885;42.596;23.044;2022-10-16T04:47:34;93660.38;;;5.07;98.35
15568;BME280;7885;42.596;23.044;2022-10-16T04:50:02;93654.13;;;5.03;98.71
15568;BME280;7885;42.596;23.044;2022-10-16T04:52:29;93662.28;;;5.19;98.65
15568;BME280;7885;42.596;23.044;2022-10-16T04:54:57;93666.66;;;5.23;97.26
15568;BME280;7885;42.596;23.044;2022-10-16T04:57:27;93631.56;;;4.95;95.66
15568;BME280;7885;42.596;23.044;2022-10-16T04:59:53;93646.47;;;5.05;94.20
15568;BME280;7885;42.596;23.044;2022-10-16T05:02:20;93669.88;;;5.29;94.65
15568;BME280;7885;42.596;23.044;2022-10-16T05:04:47;93680.75;;;5.44;96.51
15568;BME280;7885;42.596;23.044;2022-10-16T05:07:15;93680.97;;;5.51;93.38
15568;BME280;7885;42.596;23.044;2022-10-16T05:09:42;93661.41;;;5.42;91.78
15568;BME280;7885;42.596;23.044;2022-10-16T05:12:08;93675.09;;;5.49;89.73
15568;BME280;7885;42.596;23.044;2022-10-16T05:14:35;93684.09;;;5.53;90.56
15568;BME280;7885;42.596;23.044;2022-10-16T05:17:02;93686.97;;;5.60;91.21
15568;BME280;7885;42.596;23.044;2022-10-16T05:19:29;93678.88;;;5.60;90.09
15568;BME280;7885;42.596;23.044;2022-10-16T05:21:55;93694.88;;;5.81;90.61
15568;BME280;7885;42.596;23.044;2022-10-16T05:24:24;93623.56;;;5.54;89.66
15568;BME280;7885;42.596;23.044;2022-10-16T05:26:50;93680.56;;;6.08;89.98
15568;BME280;7885;42.596;23.044;2022-10-16T05:29:17;93679.81;;;6.24;89.38
15568;BME280;7885;42.596;23.044;2022-10-16T05:31:44;93693.91;;;6.48;89.96
15568;BME280;7885;42.596;23.044;2022-10-16T05:34:11;93697.03;;;6.66;89.30
15568;BME280;7885;42.596;23.044;2022-10-16T05:36:38;93677.59;;;6.60;88.93
15568;BME280;7885;42.596;23.044;2022-10-16T05:39:05;93686.84;;;6.75;88.87
15568;BME280;7885;42.596;23.044;2022-10-16T05:41:33;93687.50;;;6.88;88.48
15568;BME280;7885;42.596;23.044;2022-10-16T05:43:59;93690.25;;;7.07;87.92
15568;BME280;7885;42.596;23.044;2022-10-16T05:46:26;93706.69;;;7.33;87.17
15568;BME280;7885;42.596;23.044;2022-10-16T05:48:53;93711.97;;;7.45;87.69
15568;BME280;7885;42.596;23.044;2022-10-16T05:51:20;93713.13;;;7.63;87.56
15568;BME280;7885;42.596;23.044;2022-10-16T05:53:46;93703.16;;;7.68;87.71
15568;BME280;7885;42.596;23.044;2022-10-16T05:56:14;93701.16;;;7.84;87.08
15568;BME280;7885;42.596;23.044;2022-10-16T05:58:42;93722.19;;;8.09;86.45
15568;BME280;7885;42.596;23.044;2022-10-16T06:01:11;93697.72;;;8.06;85.57
15568;BME280;7885;42.596;23.044;2022-10-16T06:03:38;93718.97;;;8.46;84.92
15568;BME280;7885;42.596;23.044;2022-10-16T06:06:09;93740.00;;;8.98;84.32
15568;BME280;7885;42.596;23.044;2022-10-16T06:08:39;93737.59;;;9.72;81.56
15568;BME280;7885;42.596;23.044;2022-10-16T06:11:08;93739.41;;;11.55;75.71
15568;BME280;7885;42.596;23.044;2022-10-16T06:13:35;93752.41;;;13.90;66.21
15568;BME280;7885;42.596;23.044;2022-10-16T06:16:04;93742.19;;;15.46;60.98
15568;BME280;7885;42.596;23.044;2022-10-16T06:18:34;93756.94;;;17.55;54.41
15568;BME280;7885;42.596;23.044;2022-10-16T06:21:07;93752.34;;;19.33;49.21
15568;BME280;7885;42.596;23.044;2022-10-16T06:23:34;93745.47;;;20.92;43.86
15568;BME280;7885;42.596;23.044;2022-10-16T06:26:05;93751.16;;;22.37;40.15
15568;BME280;7885;42.596;23.044;2022-10-16T06:28:32;93737.03;;;23.61;36.35
15568;BME280;7885;42.596;23.044;2022-10-16T06:30:59;93742.00;;;24.79;34.11
15568;BME280;7885;42.596;23.044;2022-10-16T06:33:27;93747.25;;;26.06;30.33
15568;BME280;7885;42.596;23.044;2022-10-16T06:36:00;93752.53;;;26.99;28.57
15568;BME280;7885;42.596;23.044;2022-10-16T06:38:27;93748.38;;;27.83;27.75
15568;BME280;7885;42.596;23.044;2022-10-16T06:40:54;93729.53;;;28.68;26.36
15568;BME280;7885;42.596;23.044;2022-10-16T06:43:21;93715.78;;;29.41;25.32
15568;BME280;7885;42.596;23.044;2022-10-16T06:45:51;93758.53;;;30.19;24.19
15568;BME280;7885;42.596;23.044;2022-10-16T06:48:18;93760.81;;;31.05;23.55
15568;BME280;7885;42.596;23.044;2022-10-16T06:50:55;93773.25;;;31.97;22.39
15568;BME280;7885;42.596;23.044;2022-10-16T06:53:21;93773.44;;;32.77;21.36
15568;BME280;7885;42.596;23.044;2022-10-16T06:55:48;93787.97;;;33.14;20.64
15568;BME280;7885;42.596;23.044;2022-10-16T06:58:27;93768.00;;;33.53;20.02
15568;BME280;7885;42.596;23.044;2022-10-16T07:00:57;93778.50;;;33.64;19.73
15568;BME280;7885;42.596;23.044;2022-10-16T07:03:23;93768.13;;;34.07;19.37
15568;BME280;7885;42.596;23.044;2022-10-16T07:05:51;93772.59;;;34.32;19.45
15568;BME280;7885;42.596;23.044;2022-10-16T07:08:18;93785.00;;;35.02;19.09
15568;BME280;7885;42.596;23.044;2022-10-16T07:10:45;93775.59;;;35.37;18.62
15568;BME280;7885;42.596;23.044;2022-10-16T07:13:12;93775.34;;;35.91;18.23
15568;BME280;7885;42.596;23.044;2022-10-16T07:15:39;93791.78;;;36.43;17.87
15568;BME280;7885;42.596;23.044;2022-10-16T07:18:06;93775.28;;;36.28;17.56
15568;BME280;7885;42.596;23.044;2022-10-16T07:20:33;93758.72;;;36.32;17.29
15568;BME280;7885;42.596;23.044;2022-10-16T07:23:01;93785.88;;;36.86;17.12
15568;BME280;7885;42.596;23.044;2022-10-16T07:25:28;93785.91;;;36.99;16.67
15568;BME280;7885;42.596;23.044;2022-10-16T07:27:55;93795.84;;;37.19;17.20
15568;BME280;7885;42.596;23.044;2022-10-16T07:30:22;93782.03;;;38.09;16.37
15568;BME280;7885;42.596;23.044;2022-10-16T07:32:49;93790.47;;;38.56;15.98
15568;BME280;7885;42.596;23.044;2022-10-16T07:35:16;93797.06;;;39.00;15.73
15568;BME280;7885;42.596;23.044;2022-10-16T07:37:44;93763.97;;;38.89;15.64
15568;BME280;7885;42.596;23.044;2022-10-16T07:40:13;93764.91;;;39.49;15.18
15568;BME280;7885;42.596;23.044;2022-10-16T07:42:40;93796.94;;;40.21;15.00
15568;BME280;7885;42.596;23.044;2022-10-16T07:45:07;93788.84;;;40.70;14.61
15568;BME280;7885;42.596;23.044;2022-10-16T07:47:34;93807.91;;;41.06;14.18
15568;BME280;7885;42.596;23.044;2022-10-16T07:50:01;93807.31;;;41.07;14.39
15568;BME280;7885;42.596;23.044;2022-10-16T07:52:28;93790.56;;;41.04;14.32
15568;BME280;7885;42.596;23.044;2022-10-16T07:54:54;93767.06;;;41.51;13.94
15568;BME280;7885;42.596;23.044;2022-10-16T07:57:22;93794.41;;;41.84;13.96
15568;BME280;7885;42.596;23.044;2022-10-16T07:59:49;93812.78;;;42.46;13.37
15568;BME280;7885;42.596;23.044;2022-10-16T08:05:37;93743.53;;;42.07;12.83
15568;BME280;7885;42.596;23.044;2022-10-16T08:08:04;93807.22;;;42.80;12.79
15568;BME280;7885;42.596;23.044;2022-10-16T08:10:31;93801.94;;;43.18;12.73
15568;BME280;7885;42.596;23.044;2022-10-16T08:12:59;93813.16;;;43.83;12.11
15568;BME280;7885;42.596;23.044;2022-10-16T08:15:26;93796.22;;;44.21;11.78
15568;BME280;7885;42.596;23.044;2022-10-16T08:17:57;93801.84;;;44.56;11.73
15568;BME280;7885;42.596;23.044;2022-10-16T08:20:24;93796.34;;;44.41;11.50
15568;BME280;7885;42.596;23.044;2022-10-16T08:22:51;93790.97;;;44.54;11.47
15568;BME280;7885;42.596;23.044;2022-10-16T08:25:19;93782.41;;;43.76;11.67
15568;BME280;7885;42.596;23.044;2022-10-16T08:27:46;93797.75;;;44.05;11.81
15568;BME280;7885;42.596;23.044;2022-10-16T08:30:14;93789.41;;;44.44;11.20
15568;BME280;7885;42.596;23.044;2022-10-16T08:32:42;93797.41;;;44.45;10.86
15568;BME280;7885;42.596;23.044;2022-10-16T08:35:09;93792.56;;;43.60;11.98
15568;BME280;7885;42.596;23.044;2022-10-16T08:37:36;93789.19;;;43.71;11.74
15568;BME280;7885;42.596;23.044;2022-10-16T08:40:05;93794.56;;;44.01;11.67
15568;BME280;7885;42.596;23.044;2022-10-16T08:42:43;93774.63;;;43.35;11.66
15568;BME280;7885;42.596;23.044;2022-10-16T08:45:26;93798.78;;;43.66;11.59
15568;BME280;7885;42.596;23.044;2022-10-16T08:48:03;93791.72;;;43.67;11.30
15568;BME280;7885;42.596;23.044;2022-10-16T08:50:37;93786.53;;;44.00;11.21
15568;BME280;7885;42.596;23.044;2022-10-16T08:53:05;93781.91;;;43.70;11.56
15568;BME280;7885;42.596;23.044;2022-10-16T08:55:37;93764.91;;;43.55;11.35
15568;BME280;7885;42.596;23.044;2022-10-16T08:58:11;93798.44;;;44.13;11.41
15568;BME280;7885;42.596;23.044;2022-10-16T09:00:40;93802.16;;;44.06;10.97
15568;BME280;7885;42.596;23.044;2022-10-16T09:03:16;93802.41;;;43.07;11.43
15568;BME280;7885;42.596;23.044;2022-10-16T09:06:00;93795.09;;;42.40;11.69
15568;BME280;7885;42.596;23.044;2022-10-16T09:08:38;93798.38;;;41.96;12.24
15568;BME280;7885;42.596;23.044;2022-10-16T09:11:14;93805.25;;;42.33;12.02
15568;BME280;7885;42.596;23.044;2022-10-16T09:13:50;93790.88;;;42.41;12.25
15568;BME280;7885;42.596;23.044;2022-10-16T09:16:27;93795.63;;;42.95;11.84
15568;BME280;7885;42.596;23.044;2022-10-16T09:19:00;93783.63;;;42.72;11.88
15568;BME280;7885;42.596;23.044;2022-10-16T09:21:31;93801.50;;;43.64;11.57
15568;BME280;7885;42.596;23.044;2022-10-16T09:23:59;93787.19;;;44.25;11.38
15568;BME280;7885;42.596;23.044;2022-10-16T09:26:30;93787.25;;;44.61;10.97
15568;BME280;7885;42.596;23.044;2022-10-16T09:28:57;93737.16;;;44.01;10.74
15568;BME280;7885;42.596;23.044;2022-10-16T09:31:25;93796.34;;;44.67;10.78
15568;BME280;7885;42.596;23.044;2022-10-16T09:33:55;93768.88;;;44.03;10.86
15568;BME280;7885;42.596;23.044;2022-10-16T09:36:25;93781.78;;;43.85;10.96
15568;BME280;7885;42.596;23.044;2022-10-16T09:39:03;93775.69;;;43.81;10.85
15568;BME280;7885;42.596;23.044;2022-10-16T09:41:30;93793.13;;;43.58;10.93
15568;BME280;7885;42.596;23.044;2022-10-16T09:44:03;93772.13;;;43.56;10.94
15568;BME280;7885;42.596;23.044;2022-10-16T09:46:34;93794.16;;;42.87;11.30
15568;BME280;7885;42.596;23.044;2022-10-16T09:49:03;93786.28;;;42.70;12.20
15568;BME280;7885;42.596;23.044;2022-10-16T09:51:31;93781.31;;;42.95;11.78
15568;BME280;7885;42.596;23.044;2022-10-16T09:54:00;93752.56;;;42.36;11.75
15568;BME280;7885;42.596;23.044;2022-10-16T09:56:29;93753.66;;;42.90;11.91
15568;BME280;7885;42.596;23.044;2022-10-16T09:58:59;93755.75;;;43.14;11.24
15568;BME280;7885;42.596;23.044;2022-10-16T10:01:30;93748.63;;;42.98;11.15
15568;BME280;7885;42.596;23.044;2022-10-16T10:03:58;93772.88;;;42.97;11.58
15568;BME280;7885;42.596;23.044;2022-10-16T10:06:30;93769.63;;;43.43;11.21
15568;BME280;7885;42.596;23.044;2022-10-16T10:09:04;93769.94;;;43.64;10.98
15568;BME280;7885;42.596;23.044;2022-10-16T10:11:47;93757.88;;;43.65;10.92
15568;BME280;7885;42.596;23.044;2022-10-16T10:14:20;93764.34;;;44.00;10.12
15568;BME280;7885;42.596;23.044;2022-10-16T10:16:48;93759.09;;;44.23;9.97
15568;BME280;7885;42.596;23.044;2022-10-16T10:19:19;93756.47;;;43.57;10.39
15568;BME280;7885;42.596;23.044;2022-10-16T10:21:47;93716.66;;;42.85;9.94
15568;BME280;7885;42.596;23.044;2022-10-16T10:24:15;93753.81;;;40.62;10.95
15568;BME280;7885;42.596;23.044;2022-10-16T10:26:49;93742.19;;;40.53;11.86
15568;BME280;7885;42.596;23.044;2022-10-16T10:29:25;93728.34;;;40.72;11.59
15568;BME280;7885;42.596;23.044;2022-10-16T10:32:05;93743.94;;;40.71;11.28
15568;BME280;7885;42.596;23.044;2022-10-16T10:34:46;93719.69;;;41.17;11.15
15568;BME280;7885;42.596;23.044;2022-10-16T10:37:26;93730.53;;;42.14;10.69
15568;BME280;7885;42.596;23.044;2022-10-16T10:40:02;93736.69;;;42.67;10.38
15568;BME280;7885;42.596;23.044;2022-10-16T10:42:38;93738.34;;;42.95;9.87
15568;BME280;7885;42.596;23.044;2022-10-16T10:45:20;93729.00;;;42.20;10.67
15568;BME280;7885;42.596;23.044;2022-10-16T10:48:01;93729.97;;;42.15;10.21
15568;BME280;7885;42.596;23.044;2022-10-16T10:50:38;93714.56;;;42.03;10.03
15568;BME280;7885;42.596;23.044;2022-10-16T10:53:12;93721.59;;;41.38;10.67
15568;BME280;7885;42.596;23.044;2022-10-16T10:55:47;93722.81;;;40.66;10.60
15568;BME280;7885;42.596;23.044;2022-10-16T10:58:41;93692.34;;;40.16;11.16
15568;BME280;7885;42.596;23.044;2022-10-16T11:01:13;93715.66;;;39.84;11.47
15568;BME280;7885;42.596;23.044;2022-10-16T11:03:55;93708.25;;;39.81;11.76
15568;BME280;7885;42.596;23.044;2022-10-16T11:06:30;93712.63;;;39.82;11.59
15568;BME280;7885;42.596;23.044;2022-10-16T11:09:02;93704.56;;;38.86;12.27
15568;BME280;7885;42.596;23.044;2022-10-16T11:11:38;93708.75;;;37.61;12.98
15568;BME280;7885;42.596;23.044;2022-10-16T11:14:14;93697.44;;;37.21;13.39
15568;BME280;7885;42.596;23.044;2022-10-16T11:16:45;93696.81;;;36.76;13.42
15568;BME280;7885;42.596;23.044;2022-10-16T11:19:23;93692.69;;;35.74;13.99
15568;BME280;7885;42.596;23.044;2022-10-16T11:21:59;93686.59;;;35.14;14.31
15568;BME280;7885;42.596;23.044;2022-10-16T11:24:36;93697.69;;;34.20;14.87
15568;BME280;7885;42.596;23.044;2022-10-16T11:27:09;93693.66;;;33.80;15.43
15568;BME280;7885;42.596;23.044;2022-10-16T11:29:46;93642.31;;;33.06;15.40
15568;BME280;7885;42.596;23.044;2022-10-16T11:32:21;93702.03;;;33.15;15.95
15568;BME280;7885;42.596;23.044;2022-10-16T11:34:52;93692.53;;;33.18;15.90
15568;BME280;7885;42.596;23.044;2022-10-16T11:37:27;93696.91;;;33.08;16.12
15568;BME280;7885;42.596;23.044;2022-10-16T11:40:03;93688.16;;;33.17;15.97
15568;BME280;7885;42.596;23.044;2022-10-16T11:42:35;93697.78;;;32.92;16.29
15568;BME280;7885;42.596;23.044;2022-10-16T11:45:15;93689.59;;;32.88;16.05
15568;BME280;7885;42.596;23.044;2022-10-16T11:47:56;93688.09;;;32.82;16.24
15568;BME280;7885;42.596;23.044;2022-10-16T11:50:30;93681.88;;;32.94;16.02
15568;BME280;7885;42.596;23.044;2022-10-16T11:53:04;93693.22;;;32.78;16.03
15568;BME280;7885;42.596;23.044;2022-10-16T11:55:37;93685.19;;;32.98;16.25
15568;BME280;7885;42.596;23.044;2022-10-16T11:58:07;93685.75;;;32.86;16.03
15568;BME280;7885;42.596;23.044;2022-10-16T12:04:16;93679.50;;;33.04;15.48
15568;BME280;7885;42.596;23.044;2022-10-16T12:06:49;93684.03;;;32.66;16.17
15568;BME280;7885;42.596;23.044;2022-10-16T12:09:22;93680.41;;;32.77;16.14
15568;BME280;7885;42.596;23.044;2022-10-16T12:11:51;93679.28;;;32.22;16.17
15568;BME280;7885;42.596;23.044;2022-10-16T12:14:22;93689.56;;;31.81;16.30
15568;BME280;7885;42.596;23.044;2022-10-16T12:16:59;93687.25;;;31.79;16.74
15568;BME280;7885;42.596;23.044;2022-10-16T12:19:28;93686.47;;;32.01;16.79
15568;BME280;7885;42.596;23.044;2022-10-16T12:21:58;93683.63;;;32.29;16.27
15568;BME280;7885;42.596;23.044;2022-10-16T12:24:45;93681.75;;;32.59;16.24
15568;BME280;7885;42.596;23.044;2022-10-16T12:27:24;93679.53;;;32.30;16.53
15568;BME280;7885;42.596;23.044;2022-10-16T12:29:56;93690.34;;;31.92;16.71
15568;BME280;7885;42.596;23.044;2022-10-16T12:32:28;93675.50;;;31.59;16.58
15568;BME280;7885;42.596;23.044;2022-10-16T12:34:57;93688.00;;;31.35;16.63
15568;BME280;7885;42.596;23.044;2022-10-16T12:37:26;93681.34;;;31.16;17.39
15568;BME280;7885;42.596;23.044;2022-10-16T12:39:56;93681.69;;;30.76;17.49
15568;BME280;7885;42.596;23.044;2022-10-16T12:42:33;93665.53;;;30.54;17.72
15568;BME280;7885;42.596;23.044;2022-10-16T12:45:01;93680.63;;;30.56;17.40
15568;BME280;7885;42.596;23.044;2022-10-16T12:47:48;93677.44;;;30.38;18.05
15568;BME280;7885;42.596;23.044;2022-10-16T12:50:34;93635.88;;;29.63;18.27
15568;BME280;7885;42.596;23.044;2022-10-16T12:53:03;93685.13;;;29.64;18.72
15568;BME280;7885;42.596;23.044;2022-10-16T12:55:35;93663.63;;;29.24;18.64
15568;BME280;7885;42.596;23.044;2022-10-16T12:58:35;93683.28;;;29.03;18.47
15568;BME280;7885;42.596;23.044;2022-10-16T13:01:10;93655.50;;;28.34;19.48
15568;BME280;7885;42.596;23.044;2022-10-16T13:06:46;93662.78;;;27.91;20.30
15568;BME280;7885;42.596;23.044;2022-10-16T13:09:36;93680.53;;;28.02;20.23
15568;BME280;7885;42.596;23.044;2022-10-16T13:12:18;93659.31;;;27.96;20.81
15568;BME280;7885;42.596;23.044;2022-10-16T13:15:11;93692.22;;;28.41;20.89
15568;BME280;7885;42.596;23.044;2022-10-16T13:17:46;93688.47;;;28.44;21.02
15568;BME280;7885;42.596;23.044;2022-10-16T13:20:22;93697.31;;;28.37;20.12
15568;BME280;7885;42.596;23.044;2022-10-16T13:23:02;93681.88;;;28.07;20.39
15568;BME280;7885;42.596;23.044;2022-10-16T13:25:41;93684.78;;;27.98;20.71
15568;BME280;7885;42.596;23.044;2022-10-16T13:28:13;93705.66;;;27.82;20.96
15568;BME280;7885;42.596;23.044;2022-10-16T13:30:42;93698.31;;;27.85;21.32
15568;BME280;7885;42.596;23.044;2022-10-16T13:33:14;93698.94;;;27.59;21.76
15568;BME280;7885;42.596;23.044;2022-10-16T13:35:48;93685.09;;;27.50;21.55